createdAt,value
2023-11-01T00:00:43.613Z,0.00
2023-11-01T00:01:43.578Z,0.00
2023-11-01T00:02:43.581Z,0.00
2023-11-01T00:03:43.618Z,0.00
2023-11-01T00:04:43.466Z,0.00
2023-11-01T00:05:43.462Z,0.00
2023-11-01T00:06:43.409Z,0.00
2023-11-01T00:07:43.377Z,0.00
2023-11-01T00:08:43.399Z,0.00
2023-11-01T00:09:43.318Z,0.00
2023-11-01T00:10:43.290Z,0.00
2023-11-01T00:11:43.313Z,0.00
2023-11-01T00:12:43.235Z,0.00
2023-11-01T00:13:43.201Z,0.00
2023-11-01T00:14:43.227Z,0.00
2023-11-01T00:15:43.140Z,0.00
2023-11-01T00:16:43.215Z,0.00
2023-11-01T00:17:43.135Z,0.00
2023-11-01T00:18:43.066Z,0.00
2023-11-01T00:19:43.023Z,0.00
2023-11-01T00:20:43.066Z,0.00
2023-11-01T00:21:42.965Z,0.00
2023-11-01T00:22:42.940Z,0.00
2023-11-01T00:23:42.934Z,0.00
2023-11-01T00:24:44.586Z,0.00
2023-11-01T00:25:42.851Z,0.00
2023-11-01T00:26:42.838Z,0.00
2023-11-01T00:27:42.789Z,0.00
2023-11-01T00:28:42.762Z,0.00
2023-11-01T00:29:42.782Z,0.00
2023-11-01T00:30:42.702Z,0.00
2023-11-01T00:31:42.676Z,0.00
2023-11-01T00:32:42.710Z,0.00
2023-11-01T00:33:42.637Z,0.00
2023-11-01T00:34:42.583Z,0.00
2023-11-01T00:35:42.594Z,0.00
2023-11-01T00:36:42.532Z,0.00
2023-11-01T00:37:42.497Z,0.00
2023-11-01T00:38:42.479Z,0.00
2023-11-01T00:39:42.440Z,0.00
2023-11-01T00:40:42.413Z,0.00
2023-11-01T00:41:42.394Z,0.00
2023-11-01T00:42:42.347Z,0.00
2023-11-01T00:43:42.317Z,0.00
2023-11-01T00:44:42.326Z,0.00
2023-11-01T00:45:42.257Z,0.00
2023-11-01T00:46:42.312Z,0.00
2023-11-01T00:47:42.372Z,0.00
2023-11-01T00:48:42.195Z,0.00
2023-11-01T00:49:42.140Z,0.00
2023-11-01T00:50:42.166Z,0.00
2023-11-01T00:51:42.083Z,0.00
2023-11-01T00:52:42.055Z,0.00
2023-11-01T00:53:42.103Z,0.00
2023-11-01T00:54:41.994Z,0.00
2023-11-01T00:55:41.966Z,0.00
2023-11-01T00:56:42.009Z,0.00
2023-11-01T00:57:41.913Z,0.00
2023-11-01T00:58:41.879Z,0.00
2023-11-01T00:59:41.875Z,0.00
2023-11-01T01:00:41.818Z,0.00
2023-11-01T01:01:41.788Z,0.00
2023-11-01T01:02:41.823Z,0.00
2023-11-01T01:03:41.810Z,0.00
2023-11-01T01:04:41.719Z,0.00
2023-11-01T01:05:41.736Z,0.00
2023-11-01T01:06:41.645Z,0.00
2023-11-01T01:07:41.614Z,0.00
2023-11-01T01:08:41.620Z,0.00
2023-11-01T01:09:41.559Z,0.00
2023-11-01T01:10:41.522Z,0.00
2023-11-01T01:11:41.505Z,0.00
2023-11-01T01:12:41.464Z,0.00
2023-11-01T01:13:41.435Z,0.00
2023-11-01T01:14:41.471Z,0.00
2023-11-01T01:15:41.395Z,0.00
2023-11-01T01:16:41.354Z,0.00
2023-11-01T01:17:41.369Z,0.00
2023-11-01T01:18:41.286Z,0.00
2023-11-01T01:19:41.264Z,0.00
2023-11-01T01:20:41.305Z,0.00
2023-11-01T01:21:41.204Z,0.00
2023-11-01T01:22:41.179Z,0.00
2023-11-01T01:23:41.169Z,0.00
2023-11-01T01:24:41.118Z,0.00
2023-11-01T01:25:41.088Z,0.00
2023-11-01T01:26:41.077Z,0.00
2023-11-01T01:27:41.018Z,0.00
2023-11-01T01:28:40.992Z,0.00
2023-11-01T01:29:41.008Z,0.00
2023-11-01T01:30:40.936Z,0.00
2023-11-01T01:31:40.944Z,0.00
2023-11-01T01:32:40.940Z,0.00
2023-11-01T01:33:40.841Z,0.00
2023-11-01T01:34:40.824Z,0.00
2023-11-01T01:35:40.802Z,0.00
2023-11-01T01:36:40.772Z,0.00
2023-11-01T01:37:40.725Z,0.00
2023-11-01T01:38:40.756Z,0.00
2023-11-01T01:39:40.675Z,0.00
2023-11-01T01:40:40.637Z,0.00
2023-11-01T01:41:40.629Z,0.00
2023-11-01T01:42:40.598Z,0.00
2023-11-01T01:43:40.734Z,0.00
2023-11-01T01:44:40.579Z,0.00
2023-11-01T01:45:40.499Z,0.00
2023-11-01T01:46:40.460Z,0.00
2023-11-01T01:47:40.503Z,0.00
2023-11-01T01:48:40.406Z,0.00
2023-11-01T01:49:45.434Z,0.00
2023-11-01T01:50:40.374Z,0.00
2023-11-01T01:51:40.312Z,0.00
2023-11-01T01:52:40.302Z,0.00
2023-11-01T01:53:40.329Z,0.00
2023-11-01T01:54:40.226Z,0.00
2023-11-01T01:55:40.194Z,0.00
2023-11-01T01:56:40.179Z,0.00
2023-11-01T01:57:40.146Z,0.00
2023-11-01T01:58:40.104Z,0.00
2023-11-01T01:59:40.229Z,0.00
2023-11-01T02:00:40.047Z,0.00
2023-11-01T02:01:44.960Z,0.00
2023-11-01T02:02:40.165Z,0.00
2023-11-01T02:03:40.082Z,0.00
2023-11-01T02:04:39.928Z,0.00
2023-11-01T02:05:39.937Z,0.00
2023-11-01T02:06:39.875Z,0.00
2023-11-01T02:07:39.837Z,0.00
2023-11-01T02:08:39.901Z,0.00
2023-11-01T02:09:39.779Z,0.00
2023-11-01T02:10:39.759Z,0.00
2023-11-01T02:11:39.730Z,0.00
2023-11-01T02:12:39.703Z,0.00
2023-11-01T02:13:39.662Z,0.00
2023-11-01T02:14:39.646Z,0.00
2023-11-01T02:15:39.616Z,0.00
2023-11-01T02:16:39.575Z,0.00
2023-11-01T02:17:39.601Z,0.00
2023-11-01T02:18:39.520Z,0.00
2023-11-01T02:19:39.483Z,0.00
2023-11-01T02:20:39.517Z,0.00
2023-11-01T02:21:39.423Z,0.00
2023-11-01T02:22:39.394Z,0.00
2023-11-01T02:23:39.401Z,0.00
2023-11-01T02:24:39.364Z,0.00
2023-11-01T02:25:39.308Z,0.00
2023-11-01T02:26:39.315Z,0.00
2023-11-01T02:27:39.243Z,0.00
2023-11-01T02:28:39.214Z,0.00
2023-11-01T02:29:39.254Z,0.00
2023-11-01T02:30:39.157Z,0.00
2023-11-01T02:31:40.764Z,0.00
2023-11-01T02:32:39.173Z,0.00
2023-11-01T02:33:39.067Z,0.00
2023-11-01T02:34:39.036Z,0.00
2023-11-01T02:35:39.036Z,0.00
2023-11-01T02:36:38.989Z,0.00
2023-11-01T02:37:38.959Z,0.00
2023-11-01T02:38:38.969Z,0.00
2023-11-01T02:39:38.891Z,0.00
2023-11-01T02:40:38.884Z,0.00
2023-11-01T02:41:38.845Z,0.00
2023-11-01T02:42:38.801Z,0.00
2023-11-01T02:43:38.770Z,0.00
2023-11-01T02:44:38.769Z,0.00
2023-11-01T02:45:38.724Z,0.00
2023-11-01T02:46:38.683Z,0.00
2023-11-01T02:47:38.697Z,0.00
2023-11-01T02:48:38.620Z,0.00
2023-11-01T02:49:38.591Z,0.00
2023-11-01T02:50:38.642Z,0.00
2023-11-01T02:51:38.540Z,0.00
2023-11-01T02:52:38.503Z,0.00
2023-11-01T02:53:38.500Z,0.00
2023-11-01T02:54:38.453Z,0.00
2023-11-01T02:55:38.442Z,0.00
2023-11-01T02:56:38.460Z,0.00
2023-11-01T02:57:38.358Z,0.00
2023-11-01T02:58:38.323Z,0.00
2023-11-01T02:59:38.341Z,0.00
2023-11-01T03:00:38.279Z,0.00
2023-11-01T03:01:38.302Z,0.00
2023-11-01T03:02:38.260Z,0.00
2023-11-01T03:03:38.197Z,0.00
2023-11-01T03:04:38.143Z,0.00
2023-11-01T03:05:38.139Z,0.00
2023-11-01T03:06:38.087Z,0.00
2023-11-01T03:07:38.095Z,0.00
2023-11-01T03:08:38.045Z,0.00
2023-11-01T03:09:37.995Z,0.00
2023-11-01T03:10:37.980Z,0.00
2023-11-01T03:11:37.970Z,0.00
2023-11-01T03:12:37.926Z,0.00
2023-11-01T03:13:37.876Z,0.00
2023-11-01T03:14:37.858Z,0.00
2023-11-01T03:15:37.817Z,0.00
2023-11-01T03:16:37.788Z,0.00
2023-11-01T03:17:37.999Z,0.00
2023-11-01T03:18:37.743Z,0.00
2023-11-01T03:19:37.697Z,0.00
2023-11-01T03:20:37.697Z,0.00
2023-11-01T03:21:37.639Z,0.00
2023-11-01T03:22:37.609Z,0.00
2023-11-01T03:23:37.638Z,0.00
2023-11-01T03:24:37.548Z,0.00
2023-11-01T03:25:37.520Z,0.00
2023-11-01T03:26:37.521Z,0.00
2023-11-01T03:27:37.472Z,0.00
2023-11-01T03:28:37.448Z,0.00
2023-11-01T03:29:37.430Z,0.00
2023-11-01T03:30:37.374Z,0.00
2023-11-01T03:31:37.340Z,0.00
2023-11-01T03:32:37.377Z,0.00
2023-11-01T03:33:37.329Z,0.00
2023-11-01T03:34:37.311Z,0.00
2023-11-01T03:35:37.243Z,0.00
2023-11-01T03:36:37.189Z,0.00
2023-11-01T03:37:37.177Z,0.00
2023-11-01T03:38:37.175Z,0.00
2023-11-01T03:39:37.100Z,0.00
2023-11-01T03:40:37.073Z,0.00
2023-11-01T03:41:37.059Z,0.00
2023-11-01T03:42:37.019Z,0.00
2023-11-01T03:43:37.008Z,0.00
2023-11-01T03:44:37.004Z,0.00
2023-11-01T03:45:36.933Z,0.00
2023-11-01T03:46:36.937Z,0.00
2023-11-01T03:47:36.979Z,0.00
2023-11-01T03:48:36.832Z,0.00
2023-11-01T03:49:36.847Z,0.00
2023-11-01T03:50:36.822Z,0.00
2023-11-01T03:51:36.752Z,0.00
2023-11-01T03:52:36.719Z,0.00
2023-11-01T03:53:36.703Z,0.00
2023-11-01T03:54:36.654Z,0.00
2023-11-01T03:55:36.630Z,0.00
2023-11-01T03:56:36.637Z,0.00
2023-11-01T03:57:36.566Z,0.00
2023-11-01T03:58:36.533Z,0.00
2023-11-01T03:59:36.526Z,0.00
2023-11-01T04:00:36.496Z,0.00
2023-11-01T04:01:36.465Z,0.00
2023-11-01T04:02:36.533Z,0.00
2023-11-01T04:03:36.455Z,0.00
2023-11-01T04:04:36.354Z,0.00
2023-11-01T04:05:36.351Z,0.00
2023-11-01T04:06:36.299Z,0.00
2023-11-01T04:07:36.283Z,0.00
2023-11-01T04:08:36.285Z,0.00
2023-11-01T04:09:36.216Z,0.00
2023-11-01T04:10:36.186Z,0.00
2023-11-01T04:11:36.189Z,0.00
2023-11-01T04:12:36.121Z,0.00
2023-11-01T04:13:36.084Z,0.00
2023-11-01T04:14:36.092Z,0.00
2023-11-01T04:15:36.026Z,0.00
2023-11-01T04:16:36.170Z,0.00
2023-11-01T04:17:36.037Z,0.00
2023-11-01T04:18:36.076Z,0.00
2023-11-01T04:19:35.950Z,0.00
2023-11-01T04:20:35.883Z,0.00
2023-11-01T04:21:35.853Z,0.00
2023-11-01T04:22:35.817Z,0.00
2023-11-01T04:23:35.914Z,0.00
2023-11-01T04:24:35.761Z,0.00
2023-11-01T04:25:35.728Z,0.00
2023-11-01T04:26:35.709Z,0.00
2023-11-01T04:27:35.668Z,0.00
2023-11-01T04:28:35.639Z,0.00
2023-11-01T04:29:35.633Z,0.00
2023-11-01T04:30:35.578Z,0.00
2023-11-01T04:31:35.590Z,0.00
2023-11-01T04:32:35.602Z,0.00
2023-11-01T04:33:35.526Z,0.00
2023-11-01T04:34:35.522Z,0.00
2023-11-01T04:35:35.460Z,0.00
2023-11-01T04:36:35.396Z,0.00
2023-11-01T04:37:35.369Z,0.00
2023-11-01T04:38:35.408Z,0.00
2023-11-01T04:39:35.306Z,0.00
2023-11-01T04:40:35.280Z,0.00
2023-11-01T04:41:35.250Z,0.00
2023-11-01T04:42:35.218Z,0.00
2023-11-01T04:43:35.187Z,0.00
2023-11-01T04:44:35.299Z,0.00
2023-11-01T04:45:35.127Z,0.00
2023-11-01T04:46:35.101Z,0.00
2023-11-01T04:47:35.119Z,0.00
2023-11-01T04:48:35.096Z,0.00
2023-11-01T04:49:35.010Z,0.00
2023-11-01T04:50:35.016Z,0.00
2023-11-01T04:51:34.966Z,0.00
2023-11-01T04:52:34.916Z,0.00
2023-11-01T04:53:34.887Z,0.00
2023-11-01T04:54:34.865Z,0.00
2023-11-01T04:55:34.833Z,0.00
2023-11-01T04:56:34.878Z,0.00
2023-11-01T04:57:34.769Z,0.00
2023-11-01T04:58:34.738Z,0.00
2023-11-01T04:59:34.843Z,0.00
2023-11-01T05:00:34.676Z,0.00
2023-11-01T05:01:34.730Z,0.00
2023-11-01T05:02:34.708Z,0.00
2023-11-01T05:03:34.648Z,0.00
2023-11-01T05:04:34.576Z,0.00
2023-11-01T05:05:34.567Z,0.00
2023-11-01T05:06:34.504Z,0.00
2023-11-01T05:07:34.536Z,0.00
2023-11-01T05:08:34.517Z,0.00
2023-11-01T05:09:34.406Z,0.00
2023-11-01T05:10:34.383Z,0.00
2023-11-01T05:11:34.365Z,0.00
2023-11-01T05:12:34.315Z,0.00
2023-11-01T05:13:34.313Z,0.00
2023-11-01T05:14:34.281Z,0.00
2023-11-01T05:15:34.224Z,0.00
2023-11-01T05:16:34.207Z,0.00
2023-11-01T05:17:34.256Z,0.00
2023-11-01T05:18:34.213Z,0.00
2023-11-01T05:19:34.105Z,0.00
2023-11-01T05:20:34.134Z,0.00
2023-11-01T05:21:34.045Z,0.00
2023-11-01T05:22:34.016Z,0.00
2023-11-01T05:23:34.023Z,0.00
2023-11-01T05:24:33.954Z,0.00
2023-11-01T05:25:33.933Z,0.00
2023-11-01T05:26:33.936Z,0.00
2023-11-01T05:27:33.940Z,0.00
2023-11-01T05:28:33.841Z,0.00
2023-11-01T05:29:33.823Z,0.00
2023-11-01T05:30:33.818Z,0.00
2023-11-01T05:31:33.742Z,0.00
2023-11-01T05:32:33.780Z,0.00
2023-11-01T05:33:33.715Z,0.00
2023-11-01T05:34:33.653Z,4.00
2023-11-01T05:35:33.638Z,4.00
2023-11-01T05:36:33.614Z,4.00
2023-11-01T05:37:33.563Z,4.00
2023-11-01T05:38:33.536Z,4.00
2023-11-01T05:39:33.502Z,4.00
2023-11-01T05:40:33.469Z,0.00
2023-11-01T05:41:33.464Z,4.00
2023-11-01T05:42:33.415Z,4.00
2023-11-01T05:43:33.392Z,4.00
2023-11-01T05:44:33.394Z,4.00
2023-11-01T05:45:33.326Z,8.00
2023-11-01T05:46:33.355Z,4.00
2023-11-01T05:47:33.346Z,4.00
2023-11-01T05:48:33.289Z,8.00
2023-11-01T05:49:33.206Z,8.00
2023-11-01T05:50:33.202Z,12.00
2023-11-01T05:51:33.143Z,12.00
2023-11-01T05:52:33.132Z,16.00
2023-11-01T05:53:33.135Z,20.00
2023-11-01T05:54:33.058Z,20.00
2023-11-01T05:55:42.600Z,24.00
2023-11-01T05:56:33.036Z,32.00
2023-11-01T05:57:32.963Z,32.00
2023-11-01T05:58:32.933Z,40.00
2023-11-01T05:59:32.945Z,44.00
2023-11-01T06:00:32.889Z,56.00
2023-11-01T06:01:32.853Z,60.00
2023-11-01T06:02:32.924Z,72.00
2023-11-01T06:03:33.023Z,80.00
2023-11-01T06:04:32.779Z,92.00
2023-11-01T06:05:32.744Z,104.00
2023-11-01T06:06:32.688Z,120.00
2023-11-01T06:07:32.664Z,132.00
2023-11-01T06:08:32.708Z,144.00
2023-11-01T06:09:32.596Z,164.00
2023-11-01T06:10:32.576Z,180.00
2023-11-01T06:11:32.587Z,196.00
2023-11-01T06:12:32.512Z,216.00
2023-11-01T06:13:32.479Z,236.00
2023-11-01T06:14:32.519Z,260.00
2023-11-01T06:15:32.432Z,284.00
2023-11-01T06:16:32.396Z,308.00
2023-11-01T06:17:32.504Z,332.00
2023-11-01T06:18:32.331Z,352.00
2023-11-01T06:19:32.297Z,380.00
2023-11-01T06:20:32.308Z,404.00
2023-11-01T06:21:32.240Z,428.00
2023-11-01T06:22:32.204Z,456.00
2023-11-01T06:23:32.278Z,484.00
2023-11-01T06:25:32.297Z,532.00
2023-11-01T06:26:32.229Z,556.00
2023-11-01T06:27:32.051Z,584.00
2023-11-01T06:28:32.024Z,604.00
2023-11-01T06:29:32.009Z,632.00
2023-11-01T06:30:31.973Z,656.00
2023-11-01T06:31:31.934Z,680.00
2023-11-01T06:32:32.030Z,708.00
2023-11-01T06:33:31.974Z,728.00
2023-11-01T06:34:31.885Z,756.00
2023-11-01T06:35:31.824Z,784.00
2023-11-01T06:36:31.783Z,812.00
2023-11-01T06:37:31.756Z,840.00
2023-11-01T06:38:31.748Z,872.00
2023-11-01T06:39:31.710Z,908.00
2023-11-01T06:40:31.659Z,940.00
2023-11-01T06:41:31.682Z,960.00
2023-11-01T06:42:31.614Z,992.00
2023-11-01T06:43:31.572Z,1032.00
2023-11-01T06:44:31.611Z,1080.00
2023-11-01T06:45:31.511Z,1120.00
2023-11-01T06:46:31.511Z,1164.00
2023-11-01T06:47:31.510Z,1212.00
2023-11-01T06:48:31.480Z,1264.00
2023-11-01T06:49:32.478Z,1312.00
2023-11-01T06:50:31.364Z,1352.00
2023-11-01T06:51:31.329Z,1384.00
2023-11-01T06:52:31.314Z,1404.00
2023-11-01T06:53:31.298Z,1432.00
2023-11-01T06:54:31.239Z,1440.00
2023-11-01T06:55:31.229Z,1456.00
2023-11-01T06:56:31.228Z,1488.00
2023-11-01T06:57:31.177Z,1508.00
2023-11-01T06:58:31.121Z,1520.00
2023-11-01T06:59:31.100Z,1544.00
2023-11-01T07:00:31.066Z,1588.00
2023-11-01T07:01:31.033Z,1620.00
2023-11-01T07:02:31.065Z,1652.00
2023-11-01T07:03:31.052Z,1684.00
2023-11-01T07:04:30.998Z,1712.00
2023-11-01T07:05:30.922Z,1736.00
2023-11-01T07:06:30.883Z,1788.00
2023-11-01T07:07:30.848Z,1804.00
2023-11-01T07:08:30.849Z,1840.00
2023-11-01T07:09:30.797Z,1900.00
2023-11-01T07:10:30.762Z,1956.00
2023-11-01T07:11:30.727Z,2024.00
2023-11-01T07:12:30.705Z,2516.00
2023-11-01T07:13:30.691Z,2944.00
2023-11-01T07:14:30.655Z,2924.00
2023-11-01T07:15:30.624Z,3184.00
2023-11-01T07:16:30.577Z,5228.00
2023-11-01T07:17:30.645Z,7748.00
2023-11-01T07:18:30.546Z,8232.00
2023-11-01T07:19:30.493Z,6000.00
2023-11-01T07:20:30.490Z,5472.00
2023-11-01T07:21:30.435Z,5252.00
2023-11-01T07:22:30.403Z,4024.00
2023-11-01T07:23:30.457Z,3304.00
2023-11-01T07:24:30.342Z,2356.00
2023-11-01T07:25:30.308Z,2104.00
2023-11-01T07:26:30.302Z,2084.00
2023-11-01T07:27:30.252Z,2084.00
2023-11-01T07:28:30.223Z,2096.00
2023-11-01T07:29:30.229Z,2108.00
2023-11-01T07:30:30.170Z,2112.00
2023-11-01T07:31:30.156Z,2108.00
2023-11-01T07:32:30.154Z,2140.00
2023-11-01T07:33:30.142Z,2128.00
2023-11-01T07:34:30.053Z,2148.00
2023-11-01T07:35:30.078Z,2192.00
2023-11-01T07:36:30.001Z,2196.00
2023-11-01T07:37:29.962Z,2128.00
2023-11-01T07:38:29.941Z,2212.00
2023-11-01T07:39:29.904Z,2232.00
2023-11-01T07:40:29.899Z,2236.00
2023-11-01T07:41:29.867Z,2132.00
2023-11-01T07:42:29.815Z,2216.00
2023-11-01T07:43:29.786Z,2296.00
2023-11-01T07:44:29.786Z,2296.00
2023-11-01T07:45:29.766Z,2300.00
2023-11-01T07:46:29.699Z,2308.00
2023-11-01T07:47:29.729Z,2320.00
2023-11-01T07:48:29.741Z,2348.00
2023-11-01T07:49:29.613Z,2372.00
2023-11-01T07:50:29.616Z,2380.00
2023-11-01T07:51:29.553Z,2392.00
2023-11-01T07:52:29.531Z,2400.00
2023-11-01T07:53:29.521Z,2224.00
2023-11-01T07:54:29.488Z,1956.00
2023-11-01T07:55:29.438Z,1912.00
2023-11-01T07:56:29.437Z,1992.00
2023-11-01T07:57:29.380Z,2032.00
2023-11-01T07:58:29.359Z,2132.00
2023-11-01T07:59:29.422Z,2260.00
2023-11-01T08:00:29.296Z,2448.00
2023-11-01T08:01:29.327Z,2376.00
2023-11-01T08:02:29.296Z,2280.00
2023-11-01T08:03:29.308Z,2204.00
2023-11-01T08:04:29.302Z,2292.00
2023-11-01T08:05:29.232Z,2400.00
2023-11-01T08:06:29.120Z,2404.00
2023-11-01T08:07:29.088Z,2676.00
2023-11-01T08:08:29.135Z,2856.00
2023-11-01T08:09:29.031Z,2896.00
2023-11-01T08:10:29.001Z,2940.00
2023-11-01T08:11:28.992Z,2960.00
2023-11-01T08:12:28.949Z,2916.00
2023-11-01T08:13:28.913Z,2804.00
2023-11-01T08:14:28.920Z,2516.00
2023-11-01T08:15:28.857Z,2620.00
2023-11-01T08:16:29.239Z,2576.00
2023-11-01T08:17:28.921Z,2564.00
2023-11-01T08:18:28.783Z,2584.00
2023-11-01T08:19:28.737Z,2548.00
2023-11-01T08:20:28.732Z,2940.00
2023-11-01T08:21:28.682Z,2848.00
2023-11-01T08:22:28.660Z,2616.00
2023-11-01T08:23:28.638Z,2428.00
2023-11-01T08:24:28.596Z,2568.00
2023-11-01T08:25:28.567Z,2640.00
2023-11-01T08:26:28.558Z,2572.00
2023-11-01T08:27:28.512Z,2712.00
2023-11-01T08:28:28.476Z,2532.00
2023-11-01T08:29:28.466Z,2592.00
2023-11-01T08:30:28.426Z,2604.00
2023-11-01T08:31:28.423Z,2576.00
2023-11-01T08:32:28.400Z,2408.00
2023-11-01T08:33:28.430Z,2384.00
2023-11-01T08:34:28.399Z,2400.00
2023-11-01T08:35:28.329Z,2744.00
2023-11-01T08:36:28.244Z,2860.00
2023-11-01T08:37:28.220Z,2644.00
2023-11-01T08:38:28.209Z,2640.00
2023-11-01T08:39:28.166Z,2604.00
2023-11-01T08:40:28.128Z,2552.00
2023-11-01T08:41:28.107Z,2596.00
2023-11-01T08:42:28.078Z,2948.00
2023-11-01T08:43:28.042Z,2876.00
2023-11-01T08:44:28.047Z,2968.00
2023-11-01T08:45:27.993Z,2932.00
2023-11-01T08:46:27.984Z,2976.00
2023-11-01T08:47:28.005Z,3032.00
2023-11-01T08:48:28.001Z,2992.00
2023-11-01T08:49:27.892Z,2920.00
2023-11-01T08:50:27.853Z,3040.00
2023-11-01T08:51:27.814Z,3224.00
2023-11-01T08:52:27.782Z,3260.00
2023-11-01T08:53:29.438Z,3364.00
2023-11-01T08:54:27.726Z,3640.00
2023-11-01T08:55:27.698Z,3828.00
2023-11-01T08:56:27.696Z,3968.00
2023-11-01T08:57:27.646Z,3972.00
2023-11-01T08:58:27.610Z,4024.00
2023-11-01T08:59:27.594Z,4148.00
2023-11-01T09:00:39.180Z,4208.00
2023-11-01T09:01:27.600Z,4244.00
2023-11-01T09:02:27.609Z,4276.00
2023-11-01T09:03:27.556Z,4344.00
2023-11-01T09:04:27.479Z,4392.00
2023-11-01T09:05:27.487Z,4460.00
2023-11-01T09:06:27.390Z,4560.00
2023-11-01T09:07:27.362Z,4700.00
2023-11-01T09:08:27.359Z,4892.00
2023-11-01T09:09:27.300Z,5040.00
2023-11-01T09:10:27.270Z,4868.00
2023-11-01T09:11:27.250Z,4928.00
2023-11-01T09:12:27.264Z,5012.00
2023-11-01T09:13:27.190Z,5068.00
2023-11-01T09:14:27.187Z,5188.00
2023-11-01T09:15:27.128Z,5212.00
2023-11-01T09:16:27.101Z,5112.00
2023-11-01T09:17:27.174Z,5132.00
2023-11-01T09:18:27.110Z,5132.00
2023-11-01T09:19:27.017Z,5160.00
2023-11-01T09:20:27.068Z,4968.00
2023-11-01T09:21:26.977Z,4804.00
2023-11-01T09:22:26.928Z,4708.00
2023-11-01T09:23:26.925Z,4636.00
2023-11-01T09:24:26.872Z,4616.00
2023-11-01T09:25:26.907Z,4612.00
2023-11-01T09:26:26.881Z,4648.00
2023-11-01T09:27:26.790Z,4736.00
2023-11-01T09:28:26.778Z,4748.00
2023-11-01T09:29:26.742Z,4768.00
2023-11-01T09:30:26.714Z,4780.00
2023-11-01T09:31:26.675Z,4784.00
2023-11-01T09:32:26.784Z,4816.00
2023-11-01T09:33:26.725Z,4828.00
2023-11-01T09:34:26.640Z,4908.00
2023-11-01T09:35:26.698Z,4952.00
2023-11-01T09:36:26.535Z,4916.00
2023-11-01T09:37:26.526Z,4960.00
2023-11-01T09:38:26.503Z,4956.00
2023-11-01T09:39:26.473Z,4972.00
2023-11-01T09:40:26.422Z,5016.00
2023-11-01T09:41:26.415Z,5096.00
2023-11-01T09:42:26.367Z,5192.00
2023-11-01T09:43:26.338Z,5360.00
2023-11-01T09:44:26.364Z,5424.00
2023-11-01T09:45:26.324Z,5404.00
2023-11-01T09:46:26.298Z,5304.00
2023-11-01T09:47:26.325Z,5192.00
2023-11-01T09:48:26.336Z,5100.00
2023-11-01T09:49:26.185Z,4932.00
2023-11-01T09:50:26.173Z,4932.00
2023-11-01T09:51:26.138Z,4912.00
2023-11-01T09:52:26.095Z,4816.00
2023-11-01T09:53:26.159Z,4784.00
2023-11-01T09:54:26.034Z,4764.00
2023-11-01T09:55:26.015Z,4800.00
2023-11-01T09:56:26.040Z,4816.00
2023-11-01T09:57:25.960Z,4856.00
2023-11-01T09:58:25.925Z,4884.00
2023-11-01T09:59:25.961Z,4896.00
2023-11-01T10:00:25.873Z,4908.00
2023-11-01T10:01:25.864Z,5004.00
2023-11-01T10:02:26.015Z,5140.00
2023-11-01T10:03:25.860Z,5296.00
2023-11-01T10:04:25.790Z,5300.00
2023-11-01T10:05:25.845Z,5404.00
2023-11-01T10:06:25.697Z,5464.00
2023-11-01T10:07:25.679Z,5540.00
2023-11-01T10:08:25.681Z,5612.00
2023-11-01T10:09:25.644Z,5732.00
2023-11-01T10:10:25.596Z,5740.00
2023-11-01T10:11:25.890Z,5804.00
2023-11-01T10:12:25.531Z,5808.00
2023-11-01T10:13:25.509Z,5864.00
2023-11-01T10:14:25.496Z,5920.00
2023-11-01T10:15:25.489Z,5976.00
2023-11-01T10:16:25.479Z,6056.00
2023-11-01T10:17:25.418Z,6096.00
2023-11-01T10:18:25.435Z,6148.00
2023-11-01T10:19:25.342Z,6224.00
2023-11-01T10:20:25.341Z,6292.00
2023-11-01T10:21:25.288Z,6344.00
2023-11-01T10:22:25.264Z,6368.00
2023-11-01T10:23:25.249Z,6396.00
2023-11-01T10:24:25.207Z,6388.00
2023-11-01T10:25:26.751Z,6320.00
2023-11-01T10:26:25.151Z,6288.00
2023-11-01T10:27:25.124Z,6268.00
2023-11-01T10:28:25.093Z,6204.00
2023-11-01T10:29:25.083Z,6076.00
2023-11-01T10:30:25.041Z,5968.00
2023-11-01T10:31:25.774Z,5860.00
2023-11-01T10:32:25.136Z,5736.00
2023-11-01T10:33:25.261Z,5616.00
2023-11-01T10:34:24.937Z,5496.00
2023-11-01T10:35:25.086Z,5348.00
2023-11-01T10:36:24.880Z,5196.00
2023-11-01T10:37:26.943Z,5048.00
2023-11-01T10:38:24.835Z,4908.00
2023-11-01T10:39:24.801Z,4744.00
2023-11-01T10:40:24.779Z,4620.00
2023-11-01T10:41:24.850Z,4540.00
2023-11-01T10:42:24.721Z,4548.00
2023-11-01T10:43:24.699Z,4652.00
2023-11-01T10:44:24.858Z,4748.00
2023-11-01T10:45:24.636Z,4876.00
2023-11-01T10:46:24.607Z,5000.00
2023-11-01T10:47:24.594Z,5068.00
2023-11-01T10:48:24.698Z,5072.00
2023-11-01T10:49:24.528Z,5048.00
2023-11-01T10:50:24.499Z,5016.00
2023-11-01T10:51:24.474Z,5008.00
2023-11-01T10:52:24.445Z,5064.00
2023-11-01T10:53:24.428Z,5156.00
2023-11-01T10:54:24.481Z,5340.00
2023-11-01T10:55:24.367Z,5536.00
2023-11-01T10:56:24.338Z,5768.00
2023-11-01T10:57:24.336Z,6016.00
2023-11-01T10:58:24.288Z,6272.00
2023-11-01T10:59:24.258Z,6488.00
2023-11-01T11:00:24.237Z,6668.00
2023-11-01T11:01:24.205Z,6752.00
2023-11-01T11:02:24.206Z,6680.00
2023-11-01T11:03:24.303Z,6576.00
2023-11-01T11:04:24.462Z,6388.00
2023-11-01T11:05:24.097Z,6208.00
2023-11-01T11:06:24.069Z,5968.00
2023-11-01T11:07:24.955Z,5704.00
2023-11-01T11:08:24.015Z,5344.00
2023-11-01T11:09:24.558Z,5100.00
2023-11-01T11:10:23.966Z,4932.00
2023-11-01T11:11:23.937Z,4800.00
2023-11-01T11:12:23.918Z,4720.00
2023-11-01T11:13:23.906Z,4660.00
2023-11-01T11:14:23.856Z,4624.00
2023-11-01T11:15:23.829Z,4612.00
2023-11-01T11:16:23.838Z,4600.00
2023-11-01T11:17:23.775Z,4580.00
2023-11-01T11:18:23.749Z,4556.00
2023-11-01T11:19:23.721Z,4548.00
2023-11-01T11:20:23.694Z,4540.00
2023-11-01T11:21:23.669Z,4548.00
2023-11-01T11:22:23.644Z,4560.00
2023-11-01T11:23:23.621Z,4572.00
2023-11-01T11:24:23.589Z,4564.00
2023-11-01T11:25:23.566Z,4564.00
2023-11-01T11:26:23.535Z,4584.00
2023-11-01T11:27:23.509Z,4632.00
2023-11-01T11:28:23.504Z,4700.00
2023-11-01T11:29:23.478Z,4776.00
2023-11-01T11:30:23.428Z,4832.00
2023-11-01T11:31:23.412Z,4892.00
2023-11-01T11:32:23.394Z,4960.00
2023-11-01T11:33:23.452Z,5064.00
2023-11-01T11:34:23.326Z,5168.00
2023-11-01T11:35:23.293Z,5316.00
2023-11-01T11:36:23.266Z,5408.00
2023-11-01T11:37:23.241Z,5468.00
2023-11-01T11:38:23.214Z,5508.00
2023-11-01T11:39:23.190Z,5452.00
2023-11-01T11:40:23.161Z,5344.00
2023-11-01T11:41:23.153Z,5136.00
2023-11-01T11:42:23.108Z,4900.00
2023-11-01T11:43:23.086Z,4840.00
2023-11-01T11:44:23.052Z,4792.00
2023-11-01T11:45:23.048Z,4676.00
2023-11-01T11:46:23.037Z,4608.00
2023-11-01T11:47:22.974Z,4596.00
2023-11-01T11:48:23.046Z,4540.00
2023-11-01T11:49:22.919Z,4540.00
2023-11-01T11:50:22.892Z,4580.00
2023-11-01T11:51:22.866Z,4732.00
2023-11-01T11:52:22.869Z,4924.00
2023-11-01T11:53:24.441Z,5148.00
2023-11-01T11:54:22.789Z,5404.00
2023-11-01T11:55:22.762Z,5500.00
2023-11-01T11:56:22.734Z,5572.00
2023-11-01T11:57:22.706Z,5592.00
2023-11-01T11:58:22.681Z,5564.00
2023-11-01T11:59:22.667Z,5492.00
2023-11-01T12:00:22.626Z,5336.00
2023-11-01T12:01:22.654Z,5112.00
2023-11-01T12:02:22.584Z,4972.00
2023-11-01T12:03:22.625Z,4908.00
2023-11-01T12:04:22.618Z,4848.00
2023-11-01T12:05:22.493Z,4796.00
2023-11-01T12:06:22.474Z,4736.00
2023-11-01T12:07:22.609Z,4720.00
2023-11-01T12:08:22.417Z,4764.00
2023-11-01T12:09:22.395Z,4844.00
2023-11-01T12:10:22.366Z,4932.00
2023-11-01T12:11:22.335Z,5008.00
2023-11-01T12:12:22.315Z,5036.00
2023-11-01T12:13:22.286Z,4980.00
2023-11-01T12:14:22.277Z,4860.00
2023-11-01T12:15:22.234Z,4732.00
2023-11-01T12:16:22.234Z,4660.00
2023-11-01T12:17:22.196Z,4644.00
2023-11-01T12:18:22.241Z,4680.00
2023-11-01T12:19:22.123Z,4760.00
2023-11-01T12:20:22.098Z,4940.00
2023-11-01T12:21:22.071Z,5132.00
2023-11-01T12:22:22.054Z,5256.00
2023-11-01T12:23:22.020Z,5316.00
2023-11-01T12:24:21.994Z,5356.00
2023-11-01T12:25:21.970Z,5424.00
2023-11-01T12:26:21.940Z,5460.00
2023-11-01T12:27:21.912Z,5468.00
2023-11-01T12:28:21.883Z,5472.00
2023-11-01T12:29:21.859Z,5508.00
2023-11-01T12:30:21.854Z,5452.00
2023-11-01T12:31:21.840Z,5416.00
2023-11-01T12:32:21.794Z,5320.00
2023-11-01T12:33:21.931Z,5240.00
2023-11-01T12:34:21.752Z,5184.00
2023-11-01T12:35:21.705Z,5072.00
2023-11-01T12:36:21.674Z,4916.00
2023-11-01T12:37:21.654Z,4744.00
2023-11-01T12:38:21.636Z,4576.00
2023-11-01T12:39:21.595Z,4416.00
2023-11-01T12:40:21.575Z,4228.00